Time;durP1;ratioP1;P1;durP2;ratioP2;P2;SDS_P1;SDS_P2;PMS_P1;PMS_P2;Temp;Humidity;BMP_temperature;BMP_pressure;BME280_temperature;BME280_humidity;BME280_pressure;Samples;Min_cycle;Max_cycle;Signal;HPM_P1;HPM_P2
2023/02/23 00:02:23;;;;;;;;;43.00;34.00;;;;;6.04;85.58;99635.97;6317601;20;2868241;-60
2023/02/23 00:04:52;;;;;;;;;38.33;33.67;;;;;6.19;85.53;99632.66;6316909;20;3612130;-60
2023/02/23 00:07:21;;;;;;;;;44.67;34.67;;;;;6.10;85.75;99641.91;6287232;20;3632701;-60
2023/02/23 00:09:51;;;;;;;;;30.67;29.67;;;;;6.31;85.19;99639.22;6317072;20;3600356;-60
2023/02/23 00:12:22;;;;;;;;;35.00;30.67;;;;;6.47;83.66;99642.91;6281017;20;3602351;-60
2023/02/23 00:14:51;;;;;;;;;38.67;33.33;;;;;6.33;84.96;99640.88;6318493;20;3612453;-60
2023/02/23 00:17:23;;;;;;;;;45.00;35.67;;;;;6.38;83.81;99643.34;6286689;20;3628800;-60
2023/02/23 00:19:52;;;;;;;;;38.00;31.00;;;;;6.38;82.75;99636.22;6317767;20;3614293;-60
2023/02/23 00:22:21;;;;;;;;;36.00;30.67;;;;;6.32;82.90;99640.97;6285682;20;2862890;-60
2023/02/23 00:24:51;;;;;;;;;47.00;33.33;;;;;6.21;83.62;99638.75;6311752;20;3631509;-60
2023/02/23 00:27:20;;;;;;;;;36.67;31.33;;;;;6.20;83.66;99636.19;6317126;20;3611805;-60
2023/02/23 00:29:48;;;;;;;;;22.50;21.00;;;;;6.18;83.55;99644.22;6312660;20;2498312;-60
2023/02/23 00:32:18;;;;;;;;;29.00;28.00;;;;;6.18;83.55;99638.91;6285802;20;2843514;-60
2023/02/23 00:34:49;;;;;;;;;40.67;28.33;;;;;5.81;84.92;99643.13;6284042;20;2879568;-60
2023/02/23 00:37:21;;;;;;;;;41.00;29.33;;;;;5.95;84.98;99639.94;6312047;20;3622517;-60
2023/02/23 00:39:55;;;;;;;;;32.00;31.67;;;;;5.99;85.38;99653.97;6315281;20;3601324;-60
2023/02/23 00:42:28;;;;;;;;;39.00;32.67;;;;;5.96;84.68;99649.63;6315788;20;2866060;-60
2023/02/23 00:44:57;;;;;;;;;35.00;30.00;;;;;5.64;86.50;99649.19;6318329;20;3593095;-60
2023/02/23 00:47:26;;;;;;;;;41.00;34.00;;;;;5.71;85.56;99649.78;6312628;20;2873188;-60
2023/02/23 00:49:56;;;;;;;;;39.00;32.33;;;;;5.47;86.95;99647.22;6315051;20;3621089;-60
2023/02/23 00:52:25;;;;;;;;;32.00;29.50;;;;;5.70;86.76;99658.72;6311996;20;2853641;-60
2023/02/23 00:54:54;;;;;;;;;38.67;32.67;;;;;5.66;85.81;99659.75;6283335;20;3614872;-60
2023/02/23 00:57:24;;;;;;;;;39.67;33.33;;;;;5.60;86.57;99652.88;6315004;20;3612875;-60
2023/02/23 00:59:53;;;;;;;;;35.00;31.00;;;;;5.71;86.06;99663.97;6316937;20;3593011;-60
2023/02/23 01:02:22;;;;;;;;;36.67;31.33;;;;;5.66;86.20;99659.75;6283208;20;2866982;-60
2023/02/23 01:04:52;;;;;;;;;36.00;29.00;;;;;5.66;85.21;99665.09;6314427;20;2866040;-60
2023/02/23 01:07:24;;;;;;;;;34.00;31.00;;;;;5.75;84.96;99662.06;6314599;20;2863947;-60
2023/02/23 01:09:53;;;;;;;;;41.33;34.33;;;;;5.56;85.69;99658.44;6313728;20;3621195;-60
2023/02/23 01:12:23;;;;;;;;;39.00;30.00;;;;;5.55;86.40;99662.00;6313198;20;3629471;-60
2023/02/23 01:14:52;;;;;;;;;37.67;30.67;;;;;5.64;85.77;99664.31;6314386;20;2863977;-59
2023/02/23 01:17:21;;;;;;;;;41.00;33.00;;;;;5.70;85.27;99661.38;6316838;20;3624262;-60
2023/02/23 01:19:51;;;;;;;;;39.67;35.00;;;;;5.66;86.00;99657.09;6283687;20;3611717;-60
2023/02/23 01:22:20;;;;;;;;;32.50;30.50;;;;;5.56;86.12;99655.78;6311888;20;2856650;-60
2023/02/23 01:24:50;;;;;;;;;31.33;29.00;;;;;5.66;85.90;99657.97;6282181;20;2854543;-60
2023/02/23 01:27:18;;;;;;;;;34.67;31.00;;;;;5.62;86.83;99655.50;6316961;20;3590870;-60
2023/02/23 01:29:48;;;;;;;;;44.33;32.00;;;;;5.77;85.31;99659.34;6281114;20;3621242;-60
2023/02/23 01:32:17;;;;;;;;;41.67;35.00;;;;;5.80;85.22;99653.88;6314630;20;3619004;-60
2023/02/23 01:34:50;;;;;;;;;39.33;32.33;;;;;5.65;85.03;99656.22;6313570;20;2873301;-60
2023/02/23 01:37:19;;;;;;;;;35.00;33.33;;;;;5.67;84.85;99651.72;6313181;20;3601323;-60
2023/02/23 01:39:48;;;;;;;;;39.00;34.00;;;;;5.62;85.78;99655.50;6283198;20;3622154;-59
2023/02/23 01:42:18;;;;;;;;;39.67;29.33;;;;;5.77;85.11;99662.00;6312519;20;3626501;-60
2023/02/23 01:44:47;;;;;;;;;38.50;34.00;;;;;5.75;84.93;99655.88;6315109;20;2859698;-60
2023/02/23 01:47:19;;;;;;;;;45.67;35.33;;;;;5.75;84.77;99662.06;6286429;20;3608624;-60
2023/02/23 01:49:49;;;;;;;;;40.67;32.00;;;;;5.62;85.04;99652.84;6280664;20;3613799;-60
2023/02/23 01:52:19;;;;;;;;;45.00;33.67;;;;;5.52;85.42;99646.16;6313459;20;2868172;-60
2023/02/23 01:54:54;;;;;;;;;38.33;32.00;;;;;5.47;86.24;99641.03;6311159;20;2867041;-60
2023/02/23 01:57:25;;;;;;;;;50.67;34.67;;;;;5.44;86.39;99647.34;6314293;20;3641975;-60
2023/02/23 01:59:55;;;;;;;;;38.00;31.00;;;;;5.37;86.63;99640.56;6277817;20;2860701;-60
2023/02/23 02:02:32;;;;;;;;;37.33;29.00;;;;;5.33;87.20;99644.25;6283221;20;2863929;-60
2023/02/23 02:05:07;;;;;;;;;40.00;31.33;;;;;5.37;86.93;99640.56;6313815;20;3621232;-60
2023/02/23 02:07:38;;;;;;;;;32.00;29.00;;;;;5.17;87.73;99632.50;6314290;20;2856536;-59
2023/02/23 02:12:50;;;;;;;;;42.00;33.00;;;;;5.39;87.55;99644.00;6311754;20;2871259;-60
2023/02/23 02:15:26;;;;;;;;;43.67;34.33;;;;;5.55;86.65;99640.69;6311497;20;3628479;-60
2023/02/23 02:18:29;;;;;;;;;31.50;27.50;;;;;5.42;86.98;99638.53;6309742;20;2872190;-60
2023/02/23 02:21:38;;;;;;;;;35.50;30.00;;;;;5.47;86.48;99641.88;6279905;20;2859692;-60
2023/02/23 02:24:42;;;;;;;;;37.00;31.50;;;;;5.49;86.76;99631.19;6278076;20;2853413;-60
2023/02/23 02:27:42;;;;;;;;;46.33;37.00;;;;;5.59;87.13;99643.19;6277686;20;3617948;-60
2023/02/23 02:30:33;;;;;;;;;66.67;50.67;;;;;5.64;86.20;99643.00;6312495;20;3641037;-60
2023/02/23 02:33:44;;;;;;;;;68.00;51.33;;;;;5.67;86.39;99634.88;6310093;20;3626327;-60
2023/02/23 02:36:50;;;;;;;;;35.50;31.00;;;;;5.65;86.72;99639.38;6310147;20;2858911;-60
2023/02/23 02:39:52;;;;;;;;;79.50;60.25;;;;;5.57;86.22;99636.19;6283625;20;3634809;-60
2023/02/23 02:42:42;;;;;;;;;46.00;38.00;;;;;5.65;86.28;99644.72;6315746;20;1923337;-60
2023/02/23 02:45:46;;;;;;;;;82.00;59.67;;;;;5.68;86.34;99650.78;6286120;20;3632584;-60
2023/02/23 02:48:41;;;;;;;;;58.33;44.00;;;;;5.73;87.02;99637.25;6315194;20;2887969;-60
2023/02/23 02:51:45;;;;;;;;;46.33;35.00;;;;;5.85;85.90;99646.53;6316386;20;3614869;-59
2023/02/23 02:54:33;;;;;;;;;39.00;31.00;;;;;5.73;85.78;99645.25;6316681;20;3487876;-59
2023/02/23 02:57:06;;;;;;;;;46.33;36.00;;;;;5.77;85.92;99649.53;6314217;20;3621114;-59
2023/02/23 04:18:39;;;;;;;;;39.67;30.67;;;;;5.54;88.68;99673.59;6316414;20;3620093;-61
2023/02/23 04:21:08;;;;;;;;;57.00;40.00;;;;;5.65;88.66;99671.34;6284181;20;2872167;-60
2023/02/23 04:23:39;;;;;;;;;44.67;35.00;;;;;5.70;88.05;99677.34;6286354;20;3615916;-60
2023/02/23 04:26:09;;;;;;;;;46.00;35.33;;;;;5.84;87.65;99679.44;6279263;20;2873347;-60
2023/02/23 04:28:38;;;;;;;;;43.00;33.33;;;;;5.81;87.55;99674.25;6316660;20;3636709;-61
2023/02/23 04:31:08;;;;;;;;;40.67;34.00;;;;;5.56;88.00;99677.06;6314345;20;2861835;-60
2023/02/23 04:33:36;;;;;;;;;44.67;35.00;;;;;5.67;88.02;99677.50;6318921;20;3628383;-60
2023/02/23 04:36:05;;;;;;;;;53.00;40.00;;;;;5.68;87.79;99681.88;6282644;20;2487826;-59
2023/02/23 04:38:34;;;;;;;;;34.50;26.50;;;;;5.65;87.73;99676.69;6284874;20;2852826;-60
2023/02/23 04:41:02;;;;;;;;;45.67;35.00;;;;;5.58;87.78;99680.53;6280397;20;3624209;-60
2023/02/23 04:43:32;;;;;;;;;36.67;32.67;;;;;5.59;88.32;99682.28;6313286;20;2867056;-60
2023/02/23 04:46:02;;;;;;;;;37.67;33.00;;;;;5.66;88.19;99673.97;6316565;20;2860843;-60
2023/02/23 04:48:29;;;;;;;;;29.00;23.50;;;;;5.51;88.31;99677.25;6314812;20;2487896;-60
2023/02/23 04:50:59;;;;;;;;;45.00;34.00;;;;;5.47;88.43;99670.31;6283161;20;3628398;-61
2023/02/23 04:53:28;;;;;;;;;40.33;33.00;;;;;5.37;89.31;99667.19;6314966;20;3612774;-60
2023/02/23 04:55:58;;;;;;;;;44.33;32.67;;;;;5.42;89.70;99665.16;6315541;20;3635005;-60
2023/02/23 04:58:27;;;;;;;;;39.67;35.33;;;;;5.39;88.82;99672.41;6315099;20;2856569;-60
2023/02/23 05:01:08;;;;;;;;;42.67;38.00;;;;;5.39;89.09;99664.44;6314585;20;2861848;-60
2023/02/23 05:03:38;;;;;;;;;39.67;31.67;;;;;5.34;89.49;99671.75;6312236;20;3622216;-60
2023/02/23 05:06:07;;;;;;;;;45.33;36.67;;;;;5.35;89.62;99669.03;6313982;20;3625231;-60
2023/02/23 05:08:37;;;;;;;;;56.67;44.00;;;;;5.50;89.23;99668.41;6313128;20;3613797;-60
2023/02/23 05:11:07;;;;;;;;;34.67;32.67;;;;;5.45;88.36;99675.72;6312372;20;2858734;-60
2023/02/23 05:13:36;;;;;;;;;29.67;28.33;;;;;5.43;88.33;99669.59;6316918;20;3588844;-60
2023/02/23 05:16:06;;;;;;;;;25.33;25.33;;;;;5.30;88.63;99676.31;6299562;20;3572159;-60
2023/02/23 05:18:35;;;;;;;;;41.33;30.67;;;;;5.30;88.42;99671.00;6314340;20;3619789;-60
2023/02/23 05:21:07;;;;;;;;;41.33;34.33;;;;;5.42;88.14;99675.81;6310938;20;2862914;-60
2023/02/23 05:23:38;;;;;;;;;41.00;30.33;;;;;5.39;87.46;99681.28;6314059;20;3611221;-61
2023/02/23 05:26:11;;;;;;;;;41.00;33.67;;;;;5.30;87.83;99681.66;6311758;20;3609647;-61
2023/02/23 05:28:42;;;;;;;;;36.33;31.33;;;;;5.42;87.03;99681.13;6316042;20;2869067;-60
2023/02/23 05:31:11;;;;;;;;;45.50;35.00;;;;;5.29;87.01;99677.25;6307904;20;2504457;-60
2023/02/23 05:33:41;;;;;;;;;41.67;35.00;;;;;5.41;86.96;99678.56;6283492;20;3626293;-60
2023/02/23 05:36:16;;;;;;;;;36.67;33.33;;;;;5.42;86.79;99678.47;6315016;20;2863001;-60
2023/02/23 05:38:47;;;;;;;;;34.67;32.67;;;;;5.56;86.91;99682.41;6315505;20;2861170;-60
2023/02/23 05:41:21;;;;;;;;;40.33;32.67;;;;;5.78;85.37;99691.22;6313787;20;3614903;-60
2023/02/23 05:43:53;;;;;;;;;42.67;30.33;;;;;5.59;84.90;99687.59;6282968;20;3621234;-60
2023/02/23 05:46:26;;;;;;;;;35.33;30.33;;;;;5.53;85.42;99682.50;6311778;20;2862879;-60
2023/02/23 05:49:00;;;;;;;;;38.33;30.67;;;;;5.55;85.37;99683.31;6310717;20;2865326;-60
2023/02/23 05:51:33;;;;;;;;;40.67;34.67;;;;;5.59;84.83;99692.91;6311622;20;3610673;-60
2023/02/23 05:54:03;;;;;;;;;27.50;27.00;;;;;5.65;84.14;99687.34;6313665;20;2840889;-60
2023/02/23 05:56:32;;;;;;;;;35.50;29.50;;;;;5.67;84.77;99696.13;6285165;20;2861736;-60
2023/02/23 05:59:03;;;;;;;;;33.00;29.00;;;;;5.66;84.30;99694.38;6282914;20;2852374;-60
2023/02/23 06:01:33;;;;;;;;;34.67;28.00;;;;;5.56;84.19;99693.06;6278164;20;2861853;-60
2023/02/23 06:04:01;;;;;;;;;28.00;27.00;;;;;5.42;84.51;99698.91;6311338;20;2849302;-61
2023/02/23 06:06:34;;;;;;;;;40.00;30.33;;;;;5.46;84.59;99696.06;6281910;20;3627350;-60
2023/02/23 06:09:04;;;;;;;;;46.00;33.67;;;;;5.62;84.60;99698.13;6313328;20;3622149;-61
2023/02/23 06:11:33;;;;;;;;;37.33;33.33;;;;;5.68;85.30;99698.72;6312968;20;3617962;-61
2023/02/23 06:14:01;;;;;;;;;30.50;26.00;;;;;5.55;84.57;99707.28;6278229;20;2500420;-61
2023/02/23 06:16:29;;;;;;;;;36.00;34.00;;;;;5.84;84.35;99709.59;6278768;20;2500261;-61
2023/02/23 06:18:58;;;;;;;;;36.33;28.33;;;;;5.84;83.44;99709.59;6282242;20;2861735;-60
2023/02/23 06:21:27;;;;;;;;;35.67;32.67;;;;;5.66;83.20;99716.59;6313147;20;3604460;-60
2023/02/23 06:23:59;;;;;;;;;36.33;30.00;;;;;5.74;82.05;99724.25;6281870;20;3610697;-60
2023/02/23 06:26:28;;;;;;;;;40.00;29.67;;;;;5.77;83.04;99723.28;6316906;20;3622160;-60
2023/02/23 06:28:57;;;;;;;;;34.00;29.00;;;;;5.80;82.07;99721.34;6282826;20;2806753;-61
2023/02/23 06:31:25;;;;;;;;;30.50;28.00;;;;;5.79;82.20;99724.03;6277075;20;2840969;-60
2023/02/23 06:33:54;;;;;;;;;35.00;31.00;;;;;5.65;81.93;99727.28;6281024;20;2857643;-61
2023/02/23 06:36:23;;;;;;;;;41.67;33.00;;;;;5.67;82.19;99739.63;6280054;20;2880580;-61
2023/02/23 06:38:57;;;;;;;;;38.00;31.00;;;;;5.76;81.51;99727.69;6312118;20;2863912;-61
2023/02/23 06:41:26;;;;;;;;;22.00;18.00;;;;;5.76;80.80;99738.34;6311875;20;2826385;-60
2023/02/23 06:43:55;;;;;;;;;30.00;23.00;;;;;5.84;81.10;99741.56;6281734;20;2857627;-60
2023/02/23 06:46:24;;;;;;;;;34.00;28.00;;;;;5.72;81.00;99742.97;6283141;20;2857701;-60
2023/02/23 06:48:58;;;;;;;;;28.00;26.50;;;;;5.93;80.54;99735.91;6282623;20;2844038;-61
2023/02/23 06:51:27;;;;;;;;;29.00;22.50;;;;;5.80;80.45;99739.13;6278772;20;2849275;-61
2023/02/23 06:53:56;;;;;;;;;29.50;24.00;;;;;5.81;80.43;99739.03;6280636;20;2854577;-61
2023/02/23 06:56:25;;;;;;;;;34.67;25.33;;;;;5.72;80.34;99744.75;6282737;20;2862786;-60
2023/02/23 06:58:54;;;;;;;;;33.00;26.00;;;;;5.66;80.76;99739.66;6310881;20;2852454;-61
2023/02/23 07:01:23;;;;;;;;;35.50;28.50;;;;;5.93;80.11;99741.25;6279791;20;2861747;-60
2023/02/23 07:03:51;;;;;;;;;33.50;26.50;;;;;5.95;79.94;99741.19;6282018;20;2854451;-60
2023/02/23 07:06:20;;;;;;;;;25.00;20.67;;;;;5.83;79.83;99739.84;6281146;20;3570044;-59
2023/02/23 07:08:49;;;;;;;;;26.50;25.50;;;;;6.05;79.11;99744.31;6278388;20;2850276;-60
2023/02/23 07:11:19;;;;;;;;;34.00;32.50;;;;;5.88;79.17;99751.19;6278835;20;2840902;-60
2023/02/23 07:13:48;;;;;;;;;33.00;27.00;;;;;6.01;79.03;99742.72;6278091;20;2841036;-60
2023/02/23 07:16:15;;;;;;;;;27.00;22.00;;;;;5.96;78.67;99742.91;6278057;20;2837826;-60
2023/02/23 07:18:44;;;;;;;;;30.50;28.00;;;;;6.03;78.25;99747.06;6282262;20;2852420;-60
2023/02/23 07:21:13;;;;;;;;;31.00;24.00;;;;;5.90;78.35;99741.34;6278439;20;2856610;-59
2023/02/23 07:23:42;;;;;;;;;29.00;26.00;;;;;6.00;78.52;99744.50;6280701;20;2851327;-60
2023/02/23 07:26:14;;;;;;;;;18.00;15.50;;;;;6.22;77.76;99749.81;6281278;20;2500391;-60
2023/02/23 07:28:43;;;;;;;;;29.00;25.00;;;;;5.95;78.67;99746.53;6284936;20;2851305;-61
2023/02/23 07:31:13;;;;;;;;;32.00;24.00;;;;;6.04;78.06;99742.59;6284697;20;2864983;-60
2023/02/23 07:33:42;;;;;;;;;23.50;18.00;;;;;6.44;76.73;99740.88;6314404;20;2835791;-60
2023/02/23 07:36:10;;;;;;;;;38.00;29.50;;;;;6.34;76.61;99743.94;6282026;20;2500294;-60
2023/02/23 07:38:39;;;;;;;;;46.00;35.00;;;;;6.85;75.32;99751.53;6284655;20;3622164;-60
2023/02/23 07:41:09;;;;;;;;;30.50;26.50;;;;;6.68;75.85;99750.44;6315314;20;2853477;-60
2023/02/23 07:43:38;;;;;;;;;32.50;24.50;;;;;6.86;73.63;99747.91;6287263;20;2865900;-61
2023/02/23 07:46:07;;;;;;;;;32.50;24.50;;;;;7.03;73.18;99751.53;6284645;20;2852461;-60
2023/02/23 07:48:37;;;;;;;;;30.50;28.00;;;;;6.79;74.31;99750.88;6285757;20;2854501;-60
2023/02/23 07:51:12;;;;;;;;;35.33;28.67;;;;;6.87;73.52;99747.81;6284916;20;2874407;-60
2023/02/23 07:53:42;;;;;;;;;35.33;29.00;;;;;7.33;72.57;99748.38;6314645;20;3577330;-60
2023/02/23 07:56:12;;;;;;;;;29.67;29.00;;;;;7.09;72.10;99749.53;6284467;20;2848230;-60
2023/02/23 07:58:43;;;;;;;;;31.50;29.00;;;;;7.09;72.18;99749.53;6317971;20;2850300;-61
2023/02/23 08:01:13;;;;;;;;;31.33;29.67;;;;;7.42;71.84;99752.41;6281697;20;2855630;-61
2023/02/23 08:03:48;;;;;;;;;32.00;23.00;;;;;7.41;70.92;99745.34;6316446;20;2856574;-61
2023/02/23 08:06:19;;;;;;;;;36.00;31.00;;;;;7.46;71.10;99748.66;6284790;20;2858744;-61
2023/02/23 08:08:49;;;;;;;;;40.00;29.33;;;;;7.32;70.12;99754.66;6318512;20;2864976;-60
2023/02/23 08:11:18;;;;;;;;;37.67;30.33;;;;;7.25;71.16;99762.09;6316251;20;3604470;-60
2023/02/23 08:13:48;;;;;;;;;31.33;27.33;;;;;7.39;70.97;99755.22;6283690;20;2852394;-60
2023/02/23 08:16:17;;;;;;;;;29.67;26.33;;;;;7.25;70.43;99754.06;6317381;20;3587854;-60
2023/02/23 08:18:46;;;;;;;;;35.00;29.00;;;;;7.31;70.03;99760.06;6284008;20;2854521;-60
2023/02/23 08:21:16;;;;;;;;;36.67;27.00;;;;;7.51;70.13;99765.34;6314086;20;3609722;-60
2023/02/23 08:23:45;;;;;;;;;28.00;25.67;;;;;7.59;69.58;99764.97;6317922;20;3591972;-60
2023/02/23 08:26:14;;;;;;;;;34.50;27.00;;;;;7.57;69.26;99761.50;6281770;20;2858679;-61
2023/02/23 08:28:44;;;;;;;;;27.00;23.00;;;;;7.61;68.81;99763.97;6282115;20;2844043;-60
2023/02/23 08:31:17;;;;;;;;;33.50;27.50;;;;;8.01;68.15;99778.03;6283450;20;2858655;-60
2023/02/23 08:33:46;;;;;;;;;33.50;30.00;;;;;8.12;67.93;99767.66;6283537;20;2843044;-60
2023/02/23 08:36:16;;;;;;;;;29.00;27.33;;;;;8.17;66.68;99766.59;6284230;20;2845099;-61
2023/02/23 08:38:46;;;;;;;;;36.67;29.67;;;;;8.02;67.81;99770.88;6311590;20;3610707;-60
2023/02/23 08:41:15;;;;;;;;;24.50;22.50;;;;;8.13;66.94;99772.06;6314681;20;2844447;-61
2023/02/23 08:43:46;;;;;;;;;39.00;33.33;;;;;8.03;67.64;99768.16;6282389;20;3606586;-60
2023/02/23 08:46:17;;;;;;;;;30.67;24.67;;;;;7.79;67.05;99772.88;6316780;20;2852379;-60
2023/02/23 08:48:46;;;;;;;;;29.50;26.50;;;;;8.23;66.73;99772.47;6315576;20;2850365;-60
2023/02/23 08:51:16;;;;;;;;;30.00;29.00;;;;;8.37;66.54;99771.75;6279911;20;2848309;-61
2023/02/23 08:53:45;;;;;;;;;30.50;26.00;;;;;8.07;66.56;99772.38;6280766;20;2855534;-60
2023/02/23 08:56:15;;;;;;;;;38.00;27.00;;;;;8.22;66.39;99770.75;6284366;20;3618004;-60
2023/02/23 08:58:43;;;;;;;;;32.33;28.33;;;;;8.39;65.08;99775.28;6311309;20;3604433;-60
2023/02/23 09:01:20;;;;;;;;;25.00;19.00;;;;;8.27;64.82;99774.06;6281457;20;3580470;-60
2023/02/23 09:03:49;;;;;;;;;31.50;25.00;;;;;8.48;64.21;99779.31;6285001;20;2846123;-61
2023/02/23 09:06:24;;;;;;;;;35.33;31.00;;;;;8.66;64.85;99780.13;6280605;20;3612986;-64
2023/02/23 09:08:54;;;;;;;;;34.50;26.00;;;;;8.91;63.33;99780.59;6313539;20;2862819;-61
2023/02/23 09:11:23;;;;;;;;;25.00;22.00;;;;;8.94;62.78;99774.19;6282286;20;2830603;-61
2023/02/23 09:13:53;;;;;;;;;26.67;26.00;;;;;8.71;63.32;99768.25;6281269;20;2866937;-60
2023/02/23 09:16:24;;;;;;;;;36.00;31.33;;;;;9.00;63.16;99780.09;6312356;20;3607581;-60
2023/02/23 09:18:53;;;;;;;;;34.33;23.00;;;;;8.95;63.57;99781.28;6313950;20;3615909;-61
2023/02/23 09:21:24;;;;;;;;;31.67;28.00;;;;;8.96;63.38;99775.84;6280493;20;2851384;-61
2023/02/23 09:23:54;;;;;;;;;33.33;29.00;;;;;9.29;62.70;99776.78;6316215;20;3605513;-61
2023/02/23 09:26:28;;;;;;;;;38.00;34.00;;;;;9.63;61.66;99784.66;6277278;20;3605691;-61
2023/02/23 09:28:59;;;;;;;;;29.00;25.00;;;;;9.08;61.54;99776.97;6317406;20;2732605;-61
2023/02/23 09:31:28;;;;;;;;;29.00;25.00;;;;;8.87;62.74;99780.81;6280276;20;2845088;-61
2023/02/23 09:33:59;;;;;;;;;35.00;28.00;;;;;9.00;62.04;99777.44;6279661;20;3602404;-61
2023/02/23 09:36:30;;;;;;;;;31.00;27.67;;;;;8.82;62.47;99781.09;6316132;20;3578440;-60
2023/02/23 09:39:00;;;;;;;;;37.00;30.33;;;;;9.52;61.57;99786.22;6278191;20;3611745;-61
2023/02/23 09:41:53;;;;;;;;;35.67;24.00;;;;;9.51;60.40;99784.50;6310175;20;2870602;-60
2023/02/23 09:44:45;;;;;;;;;30.67;25.00;;;;;9.21;61.38;99783.41;6311919;20;3581667;-61
2023/02/23 09:47:39;;;;;;;;;30.67;28.00;;;;;9.44;61.03;99787.50;6315287;20;3598294;-60
2023/02/23 09:50:29;;;;;;;;;18.00;16.50;;;;;9.17;59.76;99791.72;6279729;20;2824278;-61
2023/02/23 09:53:17;;;;;;;;;33.00;24.00;;;;;9.40;59.73;99796.69;6272935;20;2847262;-58
2023/02/23 09:55:48;;;;;;;;;38.00;32.00;;;;;9.75;59.70;99788.50;6281139;20;3603434;-60
2023/02/23 09:58:29;;;;;;;;;27.50;22.50;;;;;10.14;58.80;99795.22;6280431;20;2854589;-62
2023/02/23 10:01:39;;;;;;;;;35.00;23.67;;;;;9.83;58.22;99802.31;6277224;20;3624248;-61
2023/02/23 10:04:48;;;;;;;;;30.00;25.00;;;;;9.51;58.25;99784.50;6314280;20;3577382;-61
2023/02/23 10:07:23;;;;;;;;;30.00;24.00;;;;;9.49;58.39;99794.44;6278245;20;2858650;-61
2023/02/23 10:10:10;;;;;;;;;34.33;28.67;;;;;9.86;58.13;99795.91;6278042;20;2852371;-61
2023/02/23 10:13:43;;;;;;;;;19.50;17.50;;;;;9.87;58.00;99795.84;6303359;20;2494018;-61
2023/02/23 10:16:28;;;;;;;;;26.50;22.00;;;;;9.75;58.04;99793.84;6275120;20;2839863;-61
2023/02/23 10:19:46;;;;;;;;;24.00;22.00;;;;;9.96;57.93;99798.94;6276693;20;2838867;-61
2023/02/23 10:22:17;;;;;;;;;27.50;25.00;;;;;9.79;57.63;99786.50;6277673;20;2855462;-62
2023/02/23 10:24:59;;;;;;;;;29.50;23.50;;;;;10.11;56.69;99790.03;6274742;20;2852384;-61
2023/02/23 10:27:43;;;;;;;;;33.00;28.00;;;;;10.52;57.16;99792.13;6276751;20;3610720;-60
2023/02/23 10:30:26;;;;;;;;;31.00;26.00;;;;;10.26;56.72;99782.88;6310385;20;2848341;-61
2023/02/23 10:33:30;;;;;;;;;30.33;23.67;;;;;10.33;56.66;99787.84;6278296;20;3601341;-60
2023/02/23 10:36:18;;;;;;;;;31.00;23.50;;;;;10.02;56.97;99785.19;6310532;20;2857605;-60
2023/02/23 10:38:46;;;;;;;;;24.00;19.00;;;;;10.49;56.93;99789.63;6277945;20;2837808;-60
2023/02/23 10:41:15;;;;;;;;;26.50;22.00;;;;;10.66;56.17;99781.38;6280230;20;2848388;-60
2023/02/23 10:43:44;;;;;;;;;21.00;17.67;;;;;9.88;56.62;99783.31;6280798;20;3561851;-61
2023/02/23 10:46:28;;;;;;;;;20.67;16.00;;;;;10.41;56.12;99782.00;6309813;20;3567046;-60
2023/02/23 10:48:59;;;;;;;;;25.00;21.50;;;;;10.37;56.23;99785.81;6278900;20;2846258;-61
2023/02/23 10:51:36;;;;;;;;;29.00;24.50;;;;;10.38;56.10;99775.97;6276962;20;2853446;-61
2023/02/23 10:54:34;;;;;;;;;21.50;21.00;;;;;10.36;57.22;99775.19;6277849;20;2834703;-61
2023/02/23 10:57:06;;;;;;;;;25.67;24.00;;;;;10.49;56.12;99763.63;6280658;20;2852471;-61
2023/02/23 10:59:35;;;;;;;;;16.00;15.67;;;;;10.44;55.81;99764.88;6313652;20;3550267;-59
2023/02/23 11:02:25;;;;;;;;;26.00;24.33;;;;;11.12;54.92;99762.47;6315744;20;3577478;-62
2023/02/23 11:04:58;;;;;;;;;54.50;42.00;;;;;11.16;54.26;99755.94;6316306;20;3560702;-62
2023/02/23 11:07:31;;;;;;;;;52.33;37.67;;;;;11.18;54.39;99753.16;6283270;20;3617039;-62
2023/02/23 11:10:26;;;;;;;;;23.50;21.50;;;;;10.86;54.03;99752.47;6313000;20;2846146;-62
2023/02/23 11:12:55;;;;;;;;;28.00;22.00;;;;;10.90;54.14;99745.94;6283697;20;2850319;-61
2023/02/23 11:15:23;;;;;;;;;20.00;19.00;;;;;11.08;53.82;99744.78;6284390;20;2835691;-61
2023/02/23 11:18:06;;;;;;;;;20.50;17.50;;;;;10.93;53.66;99746.63;6286988;20;2833648;-62
2023/02/23 11:20:40;;;;;;;;;30.67;25.33;;;;;11.38;53.09;99736.63;6288524;20;3583624;-62
2023/02/23 11:23:33;;;;;;;;;20.00;19.00;;;;;11.41;53.24;99738.25;6282316;20;2864948;-61
2023/02/23 11:26:27;;;;;;;;;31.50;27.00;;;;;11.39;52.72;99737.47;6283016;20;2846103;-62
2023/02/23 11:29:09;;;;;;;;;21.00;16.00;;;;;11.59;52.87;99737.06;6288122;20;2812810;-62
2023/02/23 11:31:39;;;;;;;;;26.00;20.50;;;;;11.63;53.02;99729.66;6284060;20;2842012;-61
2023/02/23 11:34:32;;;;;;;;;25.00;22.50;;;;;11.36;53.17;99732.31;6282469;20;2827425;-62
2023/02/23 11:37:13;;;;;;;;;23.50;20.50;;;;;11.71;52.14;99726.47;6283495;20;2827491;-61
2023/02/23 11:40:01;;;;;;;;;29.50;23.00;;;;;11.57;51.74;99722.84;6285638;20;2841073;-61
2023/02/23 11:42:34;;;;;;;;;31.00;24.50;;;;;11.41;53.44;99724.81;6281267;20;2852347;-62
2023/02/23 11:45:20;;;;;;;;;27.50;21.00;;;;;11.77;52.51;99717.97;6282079;20;2838851;-62
2023/02/23 11:47:53;;;;;;;;;26.50;24.00;;;;;11.98;52.17;99713.91;6285455;20;2837923;-62
2023/02/23 11:50:34;;;;;;;;;41.33;34.33;;;;;12.13;51.27;99720.06;6281859;20;3615880;-62
2023/02/23 11:53:27;;;;;;;;;28.67;25.00;;;;;11.97;51.99;99706.78;6285026;20;3599222;-61
2023/02/23 11:56:06;;;;;;;;;25.50;20.50;;;;;11.92;52.30;99708.94;6279814;20;2839863;-60
2023/02/23 11:58:54;;;;;;;;;29.33;26.67;;;;;12.45;52.42;99712.53;6281785;20;2844135;-59
2023/02/23 12:01:53;;;;;;;;;23.00;19.50;;;;;12.09;51.79;99707.81;6311313;20;2834689;-60
2023/02/23 12:04:37;;;;;;;;;30.67;28.00;;;;;12.06;53.62;99711.56;6286082;20;3599719;-60
2023/02/23 12:07:33;;;;;;;;;54.67;44.00;;;;;12.10;51.97;99705.97;6315345;20;2873330;-60
2023/02/23 12:10:32;;;;;;;;;35.25;29.00;;;;;11.68;53.24;99699.78;6312369;20;3631636;-61
2023/02/23 12:13:24;;;;;;;;;34.00;26.33;;;;;11.62;53.09;99703.72;6317762;20;3613842;-61
2023/02/23 12:16:42;;;;;;;;;22.00;21.00;;;;;11.69;52.42;99688.03;6279341;20;2726427;-61
2023/02/23 12:19:28;;;;;;;;;33.00;29.33;;;;;11.68;53.27;99695.25;6311020;20;2848554;-60
2023/02/23 12:21:59;;;;;;;;;34.67;28.67;;;;;11.65;55.10;99685.56;6313899;20;3622300;-60
2023/02/23 12:24:51;;;;;;;;;25.00;22.50;;;;;11.94;54.14;99681.94;6283580;20;2835782;-60
2023/02/23 12:27:38;;;;;;;;;25.00;25.00;;;;;11.32;54.99;99685.06;6282075;20;2843170;-58
2023/02/23 12:30:58;;;;;;;;;24.50;20.50;;;;;11.40;54.23;99686.31;6284134;20;2850284;-61
2023/02/23 12:33:59;;;;;;;;;29.00;24.00;;;;;11.13;55.65;99675.50;6278105;20;2853206;-60
2023/02/23 12:37:00;;;;;;;;;31.33;25.67;;;;;11.36;54.91;99674.03;6308517;20;2869178;-59
2023/02/23 12:39:37;;;;;;;;;39.00;34.00;;;;;11.86;53.66;99677.06;6316949;20;3611762;-61
2023/02/23 12:42:24;;;;;;;;;25.50;23.50;;;;;11.64;53.90;99673.09;6280545;20;2848274;-61
2023/02/23 12:45:06;;;;;;;;;25.00;25.00;;;;;11.54;54.09;99666.59;6284364;20;2850427;-60
2023/02/23 12:48:18;;;;;;;;;29.00;29.00;;;;;11.28;54.68;99675.50;6282044;20;2844078;-59
2023/02/23 12:50:57;;;;;;;;;22.00;18.50;;;;;11.70;54.00;99666.44;6278838;20;2836757;-60
2023/02/23 12:53:38;;;;;;;;;24.50;23.50;;;;;11.85;53.77;99664.56;6278949;20;2839856;-60
2023/02/23 12:56:21;;;;;;;;;24.50;19.50;;;;;11.84;54.00;99663.66;6276637;20;2492458;-60
2023/02/23 12:59:21;;;;;;;;;26.00;24.50;;;;;11.89;53.31;99665.22;6280038;20;2850297;-61
2023/02/23 13:02:29;;;;;;;;;22.00;18.50;;;;;11.89;53.52;99671.47;6279728;20;2823313;-61
2023/02/23 13:05:28;;;;;;;;;34.67;25.33;;;;;12.19;53.30;99659.56;6283419;20;2861782;-61
2023/02/23 13:08:40;;;;;;;;;27.67;24.00;;;;;12.10;53.26;99654.84;6312863;20;3580477;-60
2023/02/23 13:11:43;;;;;;;;;23.00;21.00;;;;;12.03;53.25;99647.19;6280052;20;2494050;-61